Data for 09/11/2009

Time Sea-Level Adjusted Pressure Absolute Pressure Temperature Relative Humidity Dew Point   
(mb) (inHg) (mb) (inHg) (C) (F) (%) (C) (F)
00:05 1028 30.36 858 25.34 14 57.2 37 -0.4 31.3
00:10 1029 30.39 858 25.34 13.9 56.9 38 -0.2 31.7
00:15 1029 30.39 858 25.34 13.6 56.5 38 -0.3 31.5
00:20 1029 30.39 858 25.34 13.7 56.7 38 -0.3 31.5
00:25 1029 30.39 858 25.34 13.6 56.5 38 -0.3 31.4
00:30 1029 30.39 858 25.34 13.6 56.5 38 -0.3 31.5
00:35 1029 30.39 858 25.34 13.6 56.4 38 -0.3 31.4
00:40 1029 30.39 858 25.34 13.6 56.5 38 -0.4 31.3
00:45 1029 30.39 858 25.34 13.6 56.4 38 -0.3 31.4
00:50 1029 30.39 858 25.34 13.5 56.4 38 -0.4 31.2
00:55 1029 30.39 858 25.34 13.6 56.4 38 -0.4 31.2
01:00 1029 30.39 858 25.34 13.6 56.5 38 -0.3 31.4
01:05 1029 30.39 858 25.34 13.5 56.3 38 -0.5 31.2
01:10 1029 30.39 858 25.34 13.6 56.5 38 -0.4 31.2
01:15 1029 30.39 858 25.34 13.5 56.3 38 -0.3 31.4
01:20 1029 30.39 858 25.34 13.4 56.1 38 -0.6 31
01:25 1029 30.39 858 25.34 13.5 56.3 38 -0.4 31.3
01:30 1029 30.39 858 25.34 13.4 56.1 38 -0.5 31.1
01:35 1029 30.39 858 25.34 13.5 56.2 38 -0.5 31.2
01:40 1029 30.39 858 25.34 13.5 56.3 38 -0.5 31.1
01:45 1029 30.39 858 25.34 13.5 56.3 38 -0.4 31.3
01:50 1029 30.39 858 25.34 13.4 56.1 38 -0.4 31.2
01:55 1029 30.39 858 25.34 13.3 56 38 -0.6 30.9
02:00 1029 30.39 858 25.34 13.4 56.2 38 -0.4 31.2
02:05 1029 30.39 858 25.34 13.4 56.1 38 -0.5 31.1
02:10 1029 30.39 858 25.34 13.3 56 38 -0.5 31.2
02:15 1029 30.39 858 25.34 13.2 55.8 38 -0.6 30.9
02:20 1029 30.39 858 25.34 13.2 55.7 39 -0.5 31.1
02:25 1029 30.39 858 25.34 13.1 55.6 39 -0.5 31.2
02:30 1029 30.39 858 25.34 12.9 55.3 39 -0.5 31.1
02:35 1029 30.39 858 25.34 12.8 55 39 -0.6 31
02:40 1029 30.39 858 25.34 12.7 54.9 40 -0.6 31
02:45 1029 30.39 858 25.34 12.7 54.8 40 -0.5 31
02:50 1029 30.39 858 25.34 12.6 54.7 40 -0.5 31.1
02:55 1029 30.39 859 25.37 12.6 54.6 40 -0.5 31.1
03:00 1029 30.39 859 25.37 12.5 54.4 41 -0.4 31.2
03:05 1029 30.39 859 25.37 12.4 54.2 41 -0.4 31.3
03:10 1029 30.39 858 25.34 12.3 54.1 41 -0.4 31.2
03:15 1029 30.39 859 25.37 12.3 54.1 42 -0.3 31.5
03:20 1029 30.39 859 25.37 12 53.7 42 -0.3 31.4
03:25 1029 30.39 859 25.37 11.9 53.5 43 -0.3 31.5
03:30 1029 30.39 859 25.37 11.8 53.2 43 -0.2 31.6
03:35 1029 30.39 859 25.37 11.6 52.9 44 -0.1 31.7
03:40 1029 30.39 859 25.37 11.5 52.7 45 -0 31.9
03:45 1029 30.39 859 25.37 11.4 52.5 45 -0.1 31.7
03:50 1030 30.42 859 25.37 11.3 52.3 45 -0 31.9
03:55 1030 30.42 859 25.37 11.1 51.9 46 0.1 32.1
04:00 1030 30.42 859 25.37 10.9 51.7 47 0 32.1
04:05 1030 30.42 859 25.37 10.8 51.5 47 -0.1 31.9
04:10 1030 30.42 859 25.37 10.7 51.3 48 0.1 32.2
04:15 1030 30.42 859 25.37 10.6 51.1 48 -0 32
04:20 1030 30.42 859 25.37 10.6 51.1 47 -0.1 31.9
04:25 1030 30.42 859 25.37 10.5 51 48 -0 32
04:30 1030 30.42 859 25.37 10.6 51.1 47 -0.1 31.8
04:35 1030 30.42 859 25.37 10.6 51 48 -0 31.9
04:40 1030 30.42 859 25.37 10.4 50.7 49 0.2 32.3
04:45 1030 30.42 859 25.37 10.2 50.4 49 -0 32
04:50 1030 30.42 859 25.37 10.3 50.5 49 0.1 32.2
04:55 1030 30.42 859 25.37 10.1 50.2 50 0.2 32.4
05:00 1030 30.42 859 25.37 9.8 49.7 51 0.2 32.3
05:05 1030 30.42 859 25.37 9.6 49.2 52 0.2 32.4
05:10 1030 30.42 859 25.37 9.4 48.8 52 0 32.1
05:15 1030 30.42 859 25.37 9.3 48.7 53 0.2 32.4
05:20 1030 30.42 859 25.37 9.1 48.3 53 0.1 32.2
05:25 1030 30.42 859 25.37 9.1 48.3 53 0 32.1
05:30 1030 30.42 859 25.37 9 48.3 53 -0 32
05:35 1030 30.42 859 25.37 9.1 48.3 53 0.1 32.2
05:40 1030 30.42 859 25.37 9 48.2 53 -0 31.9
05:45 1030 30.42 859 25.37 8.9 48.1 55 0.3 32.5
05:50 1030 30.42 859 25.37 8.8 47.8 54 0 32.1
05:55 1030 30.42 859 25.37 8.8 47.8 53 -0.1 31.8
06:00 1030 30.42 859 25.37 8.9 48 54 0 32.1
06:05 1030 30.42 859 25.37 8.8 47.9 54 -0 32
06:10 1030 30.42 859 25.37 8.7 47.6 54 -0 32
06:15 1030 30.42 859 25.37 8.5 47.3 55 -0.1 31.9
06:20 1030 30.42 859 25.37 8.3 47 56 -0 32
06:25 1030 30.42 859 25.37 8.1 46.6 58 0.4 32.8
06:30 1030 30.42 859 25.37 7.8 46 58 0 32.1
06:35 1030 30.42 859 25.37 7.8 46 60 0.5 32.9
06:40 1030 30.42 859 25.37 7.8 46 59 0.3 32.5
06:45 1030 30.42 859 25.37 7.6 45.7 60 0.3 32.6
06:50 1030 30.42 859 25.37 7.2 44.9 63 0.5 32.9
06:55 1030 30.42 859 25.37 6.9 44.3 63 0.3 32.6
07:00 1030 30.42 859 25.37 6.9 44.5 61 -0 32
07:05 1030 30.42 859 25.37 7.5 45.6 58 -0.2 31.7
07:10 1030 30.42 859 25.37 8 46.3 58 0.1 32.2
07:15 1030 30.42 859 25.37 8.1 46.5 57 0.2 32.3
07:20 1030 30.42 859 25.37 8.2 46.7 55 -0.2 31.6
07:25 1030 30.42 859 25.37 8.5 47.2 55 -0.1 31.8
07:30 1030 30.42 859 25.37 8.6 47.4 54 -0.1 31.8
07:35 1030 30.42 859 25.37 8.6 47.6 54 -0.1 31.8
07:40 1030 30.42 859 25.37 8.8 47.8 54 0.1 32.1
07:45 1030 30.42 859 25.37 8.7 47.6 53 -0.2 31.6
07:50 1030 30.42 859 25.37 9 48.2 55 0.4 32.7
07:55 1030 30.42 859 25.37 9 48.2 53 -0.1 31.9
08:00 1030 30.42 859 25.37 9 48.3 53 0.1 32.1
08:05 1030 30.42 859 25.37 9.1 48.4 55 0.6 33
08:10 1030 30.42 859 25.37 9.1 48.4 55 0.5 32.9
08:15 1030 30.42 859 25.37 9.4 48.9 53 0.3 32.5
08:20 1030 30.42 859 25.37 9.6 49.4 52 0.4 32.8
08:25 1030 30.42 859 25.37 10.1 50.2 51 0.5 32.8
08:30 1030 30.42 859 25.37 10.5 51 50 0.5 32.9
08:35 1030 30.42 859 25.37 11 51.7 49 0.8 33.5
08:40 1030 30.42 859 25.37 11.6 52.9 47 0.7 33.3
08:45 1030 30.42 859 25.37 12.2 53.9 46 0.9 33.7
08:50 1030 30.42 859 25.37 12.3 54.2 46 1.1 34
08:55 1030 30.42 859 25.37 12.8 55.1 44 1 33.8
09:00 1030 30.42 859 25.37 12.9 55.3 45 1.4 34.5
09:05 1030 30.42 859 25.37 12.9 55.3 46 1.8 35.2
09:10 1030 30.42 859 25.37 12.8 55.1 47 1.7 35.1
09:15 1030 30.42 859 25.37 13 55.4 45 1.3 34.3
09:20 1030 30.42 859 25.37 13 55.4 45 1.3 34.4
09:25 1030 30.42 859 25.37 13 55.5 45 1.3 34.4
09:30 1030 30.42 859 25.37 13.3 55.9 42 0.7 33.3
09:35 1030 30.42 859 25.37 13.7 56.7 42 1.2 34.1
09:40 1030 30.42 859 25.37 14.1 57.5 40 0.8 33.4
09:45 1030 30.42 859 25.37 14.2 57.5 40 1 33.7
09:50 1030 30.42 859 25.37 14.1 57.4 42 1.4 34.5
09:55 1030 30.42 859 25.37 14.3 57.8 39 0.8 33.4
10:00 1030 30.42 859 25.37 14.2 57.6 40 0.9 33.7
10:05 1030 30.42 859 25.37 14.7 58.5 39 1.1 34
10:10 1030 30.42 859 25.37 14.4 57.9 40 1.1 34
10:15 1030 30.42 859 25.37 15.5 59.9 36 0.6 33.2
10:20 1030 30.42 859 25.37 16.1 60.9 36 0.9 33.7
10:25 1030 30.42 859 25.37 16.1 60.9 36 1 33.9
10:30 1030 30.42 859 25.37 16.3 61.3 35 0.9 33.7
10:35 1030 30.42 859 25.37 15.4 59.7 38 1.1 34
10:40 1030 30.42 859 25.37 16 60.7 36 1 33.9
10:45 1030 30.42 859 25.37 16.1 61 38 2.1 35.7
10:50 1030 30.42 859 25.37 15.4 59.8 37 0.9 33.7
10:55 1030 30.42 859 25.37 16.4 61.5 35 0.9 33.6
11:00 1030 30.42 859 25.37 16.8 62.2 34 0.8 33.4
11:05 1030 30.42 859 25.37 16.7 62 33 0.5 33
11:10 1030 30.42 859 25.37 16.9 62.4 34 0.9 33.6
11:15 1030 30.42 859 25.37 17.5 63.6 32 0.9 33.6
11:20 1030 30.42 859 25.37 17.4 63.3 34 1.5 34.7
11:25 1030 30.42 859 25.37 17 62.5 33 0.7 33.3
11:30 1030 30.42 859 25.37 17.1 62.8 35 1.8 35.3
11:35 1030 30.42 859 25.37 18 64.5 31 0.8 33.4
11:40 1030 30.42 859 25.37 18.7 65.7 32 1.7 35.1
11:45 1030 30.42 859 25.37 18.7 65.7 30 1 33.9
11:50 1030 30.42 859 25.37 18.5 65.2 31 1.1 34.1
11:55 1030 30.42 859 25.37 18 64.4 31 0.9 33.7
12:00 1030 30.42 859 25.37 17.7 63.9 33 1.4 34.5
12:05 1029 30.39 859 25.37 17.3 63.1 32 0.4 32.7
12:10 1029 30.39 859 25.37 17.4 63.4 33 1.2 34.2
12:15 1029 30.39 859 25.37 18.5 65.4 30 0.8 33.4
12:20 1029 30.39 858 25.34 19.3 66.7 30 1.4 34.4
12:25 1029 30.39 858 25.34 19.4 66.9 28 0.7 33.3
12:30 1029 30.39 858 25.34 20.1 68.3 28 1.4 34.6
12:35 1029 30.39 858 25.34 20.1 68.2 28 1 33.9
12:40 1029 30.39 858 25.34 20.1 68.2 28 1.2 34.1
12:45 1029 30.39 858 25.34 20.3 68.5 26 0.4 32.8
12:50 1029 30.39 858 25.34 19.9 67.8 26 0.1 32.1
12:55 1029 30.39 858 25.34 19.9 67.9 25 -0.4 31.3
13:00 1029 30.39 858 25.34 19.8 67.6 26 -0.2 31.7
13:05 1029 30.39 858 25.34 19.7 67.5 25 -0.8 30.5
13:10 1029 30.39 858 25.34 19.8 67.6 26 0.1 32.2
13:15 1029 30.39 858 25.34 20.1 68.1 26 0.1 32.1
13:20 1029 30.39 858 25.34 20 67.9 26 -0.1 31.8
13:25 1029 30.39 858 25.34 20 67.9 25 -0.7 30.8
13:30 1028 30.36 858 25.34 19.7 67.5 25 -0.6 30.9
13:35 1028 30.36 858 25.34 19.9 67.8 25 -0.8 30.6
13:40 1028 30.36 858 25.34 20.1 68.1 24 -0.7 30.7
13:45 1028 30.36 857 25.31 20.2 68.4 25 -0.3 31.4
13:50 1028 30.36 857 25.31 20.8 69.5 23 -0.9 30.4
13:55 1028 30.36 857 25.31 20.6 69.1 24 -0.5 31.1
14:00 1028 30.36 857 25.31 20.9 69.5 24 -0.5 31
14:05 1028 30.36 857 25.31 20.9 69.6 24 -0.3 31.4
14:10 1028 30.36 857 25.31 20.6 69.1 24 -0.7 30.8
14:15 1028 30.36 857 25.31 20.3 68.5 23 -1.3 29.6
14:20 1028 30.36 857 25.31 20.8 69.4 23 -1.1 30.1
14:25 1028 30.36 857 25.31 21.7 71 20 -1.9 28.6
14:30 1028 30.36 857 25.31 20.9 69.6 21 -1.8 28.8
14:35 1028 30.36 857 25.31 21.1 70.1 22 -1.5 29.3
14:40 1028 30.36 857 25.31 21.4 70.6 22 -0.9 30.4
14:45 1028 30.36 857 25.31 21.7 71 22 -1 30.1
14:50 1028 30.36 857 25.31 21.7 71 22 -0.5 31.1
14:55 1028 30.36 857 25.31 21.8 71.2 21 -1.3 29.6
15:00 1028 30.36 857 25.31 21.6 71 20 -1.8 28.7
15:05 1027 30.33 857 25.31 22.2 71.9 21 -0.7 30.8
15:10 1027 30.33 857 25.31 22 71.6 22 -0.4 31.2
15:15 1027 30.33 857 25.31 22.4 72.2 21 -1.1 30
15:20 1027 30.33 856 25.28 22 71.7 22 -0.7 30.7
15:25 1027 30.33 856 25.28 22.3 72.1 21 -1 30.2
15:30 1027 30.33 856 25.28 22 71.6 21 -1.3 29.6
15:35 1027 30.33 856 25.28 22.3 72.1 20 -1.2 29.8
15:40 1027 30.33 856 25.28 22.8 73.1 20 -1 30.2
15:45 1027 30.33 856 25.28 22.6 72.7 21 -0.3 31.4
15:50 1027 30.33 856 25.28 22.1 71.8 24 0.6 33
15:55 1027 30.33 856 25.28 21.7 71.1 23 0.1 32.2
16:00 1027 30.33 856 25.28 22.5 72.6 22 0.1 32.3
16:05 1027 30.33 856 25.28 23.2 73.7 21 0.1 32.2
16:10 1027 30.33 856 25.28 23.7 74.6 18 -1.7 29
16:15 1027 30.33 856 25.28 22.7 72.8 21 -0.7 30.8
16:20 1027 30.33 856 25.28 22.3 72.2 20 -1.4 29.5
16:25 1027 30.33 856 25.28 22.5 72.4 20 -1.3 29.6
16:30 1027 30.33 856 25.28 21.8 71.2 20 -1.8 28.8
16:35 1027 30.33 856 25.28 22 71.5 19 -2.4 27.7
16:40 1027 30.33 856 25.28 22 71.6 20 -2.1 28.3
16:45 1027 30.33 856 25.28 21.6 70.8 20 -2 28.4
16:50 1027 30.33 856 25.28 21.6 70.8 20 -2.4 27.6
16:55 1027 30.33 856 25.28 21.5 70.8 21 -1.8 28.8
17:00 1026 30.3 856 25.28 21.7 71.1 20 -1.7 28.9
17:05 1026 30.3 856 25.28 21.6 70.9 19 -2.8 27
17:10 1026 30.3 856 25.28 21.6 70.8 19 -2.7 27.1
17:15 1026 30.3 856 25.28 21.7 71 19 -2.8 27
17:20 1026 30.3 855 25.25 21.7 71 19 -3.1 26.5
17:25 1026 30.3 855 25.25 21.4 70.5 19 -3 26.5
17:30 1026 30.3 855 25.25 21.4 70.4 20 -2.4 27.7
17:35 1026 30.3 855 25.25 21.4 70.4 20 -2.3 27.8
17:40 1026 30.3 855 25.25 21.4 70.4 20 -2.3 27.8
17:45 1026 30.3 855 25.25 21.2 70.2 21 -1.8 28.7
17:50 1026 30.3 855 25.25 20.9 69.7 21 -2.1 28.3
17:55 1026 30.3 855 25.25 20.8 69.4 21 -2.3 27.8
18:00 1026 30.3 855 25.25 20.7 69.2 21 -2 28.4
18:05 1026 30.3 855 25.25 20.7 69.2 21 -2.2 28.1
18:10 1026 30.3 855 25.25 20.6 69 21 -2.4 27.7
18:15 1026 30.3 855 25.25 20.4 68.6 21 -2.8 26.9
18:20 1026 30.3 855 25.25 20.2 68.3 20 -3 26.5
18:25 1026 30.3 855 25.25 20 68 21 -3 26.6
18:30 1026 30.3 855 25.25 19.9 67.9 20 -3.3 26
18:35 1026 30.3 855 25.25 19.8 67.6 21 -3.3 26
18:40 1026 30.3 855 25.25 19.7 67.5 20 -4 24.7
18:45 1026 30.3 855 25.25 19.6 67.3 21 -3.4 25.8
18:50 1026 30.3 855 25.25 19.5 67 22 -2.9 26.8
18:55 1026 30.3 855 25.25 19.3 66.8 22 -3 26.6
19:00 1026 30.3 855 25.25 19.2 66.6 22 -3 26.6
19:05 1026 30.3 855 25.25 19 66.3 22 -2.9 26.9
19:10 1026 30.3 855 25.25 18.9 66 23 -2.6 27.2
19:15 1026 30.3 855 25.25 18.6 65.5 23 -2.6 27.3
19:20 1026 30.3 855 25.25 18.4 65.2 24 -2.4 27.7
19:25 1026 30.3 855 25.25 18.3 64.9 24 -2.6 27.4
19:30 1026 30.3 855 25.25 18.1 64.7 24 -2.5 27.6
19:35 1026 30.3 855 25.25 18 64.4 25 -2.4 27.7
19:40 1026 30.3 855 25.25 17.9 64.2 25 -2.5 27.6
19:45 1026 30.3 855 25.25 17.9 64.1 25 -2.3 27.9
19:50 1026 30.3 855 25.25 17.6 63.8 26 -2.2 28.1
19:55 1026 30.3 855 25.25 17.3 63.2 26 -2.1 28.3
20:00 1026 30.3 855 25.25 17 62.5 27 -2.1 28.3
20:05 1026 30.3 855 25.25 16.8 62.2 27 -2 28.4
20:10 1026 30.3 855 25.25 16.7 62 27 -2.2 28
20:15 1026 30.3 855 25.25 16.7 62.1 27 -2.1 28.1
20:20 1026 30.3 855 25.25 16.7 62 27 -2.2 28.1
20:25 1026 30.3 855 25.25 16.6 61.9 27 -2.1 28.2
20:30 1026 30.3 855 25.25 16.6 61.9 27 -2.2 28.1
20:35 1026 30.3 855 25.25 16.5 61.7 28 -2.2 28.1
20:40 1026 30.3 855 25.25 16.4 61.6 28 -2.2 28
20:45 1026 30.3 855 25.25 16.3 61.4 28 -2 28.4
20:50 1026 30.3 855 25.25 16.1 60.9 28 -2.2 28.1
20:55 1026 30.3 855 25.25 15.9 60.7 29 -2 28.4
21:00 1026 30.3 855 25.25 15.9 60.6 29 -2.1 28.2
21:05 1026 30.3 855 25.25 15.9 60.5 29 -2.1 28.2
21:10 1026 30.3 855 25.25 15.8 60.5 29 -1.9 28.6
21:15 1026 30.3 855 25.25 15.5 59.9 30 -2.1 28.3
21:20 1026 30.3 855 25.25 15.6 60 29 -2.1 28.1
21:25 1026 30.3 855 25.25 15.6 60.1 29 -2.2 28
21:30 1026 30.3 855 25.25 15.6 60 30 -2 28.4
21:35 1026 30.3 855 25.25 15.5 59.8 30 -2 28.3
21:40 1026 30.3 855 25.25 15.5 59.8 30 -1.9 28.6
21:45 1026 30.3 855 25.25 15.4 59.8 30 -1.9 28.7
21:50 1026 30.3 855 25.25 15.4 59.6 31 -1.7 28.9
21:55 1026 30.3 855 25.25 15.3 59.6 31 -1.7 29
22:00 1026 30.3 855 25.25 15.3 59.5 31 -1.5 29.3
22:05 1026 30.3 855 25.25 15.2 59.3 32 -1.5 29.3
22:10 1026 30.3 855 25.25 15 59 32 -1.4 29.5
22:15 1026 30.3 855 25.25 15 58.9 32 -1.3 29.6
22:20 1026 30.3 855 25.25 15 58.9 33 -1.2 29.8
22:25 1026 30.3 855 25.25 14.8 58.7 33 -1.2 29.8
22:30 1026 30.3 855 25.25 14.8 58.6 33 -1.1 30
22:35 1026 30.3 855 25.25 14.7 58.5 34 -0.9 30.3
22:40 1026 30.3 855 25.25 14.6 58.3 34 -1 30.1
22:45 1026 30.3 855 25.25 14.6 58.2 35 -0.7 30.7
22:50 1026 30.3 855 25.25 14.4 57.9 35 -0.6 30.9
22:55 1026 30.3 855 25.25 14.3 57.7 36 -0.6 30.9
23:00 1026 30.3 855 25.25 14.1 57.5 37 -0.4 31.3
23:05 1026 30.3 855 25.25 13.9 57.1 37 -0.3 31.4
23:10 1026 30.3 856 25.28 13.8 56.8 38 -0.3 31.5
23:15 1026 30.3 855 25.25 13.7 56.7 38 -0.3 31.5
23:20 1026 30.3 855 25.25 13.8 56.8 38 -0.1 31.8
23:25 1026 30.3 855 25.25 13.7 56.7 38 -0.2 31.7
23:30 1026 30.3 855 25.25 13.7 56.6 39 -0.1 31.8
23:35 1026 30.3 855 25.25 13.6 56.4 39 -0.1 31.8
23:40 1026 30.3 855 25.25 13.7 56.6 39 -0.1 31.9
23:45 1026 30.3 855 25.25 13.6 56.6 39 0 32
23:50 1026 30.3 855 25.25 13.6 56.5 39 0 32
23:55 1026 30.3 855 25.25 13.6 56.5 40 0.2 32.3
24:00 1026 30.3 855 25.25 13.5 56.2 40 0.3 32.6